Time;durP1;ratioP1;P1;durP2;ratioP2;P2;SDS_P1;SDS_P2;PMS_P1;PMS_P2;Temp;Humidity;BMP_temperature;BMP_pressure;BME280_temperature;BME280_humidity;BME280_pressure;Samples;Min_cycle;Max_cycle;Signal;HPM_P1;HPM_P2
2022/07/01 00:00:32;;;;;;;7.33;5.20;;;;;;;17.39;83.95;100059.44;5120376;28;20492;-69
2022/07/01 00:02:59;;;;;;;6.43;5.30;;;;;;;17.32;83.96;100072.88;5119702;28;20498;-69
2022/07/01 00:05:26;;;;;;;6.17;5.13;;;;;;;17.46;83.50;100081.97;5119435;28;20454;-68
2022/07/01 00:07:52;;;;;;;5.20;4.20;;;;;;;17.35;83.83;100066.25;5121056;28;20462;-68
2022/07/01 00:10:19;;;;;;;4.70;4.27;;;;;;;17.44;83.72;100067.81;5119916;28;20486;-68
2022/07/01 00:12:47;;;;;;;7.40;4.40;;;;;;;17.31;84.16;100065.81;5121068;28;20460;-68
2022/07/01 00:15:14;;;;;;;4.10;3.63;;;;;;;17.10;83.78;100071.97;5119972;28;20447;-68
2022/07/01 00:17:43;;;;;;;4.47;4.07;;;;;;;17.10;83.97;100077.38;5120721;28;20433;-68
2022/07/01 00:20:11;;;;;;;5.80;4.37;;;;;;;17.16;83.31;100087.41;5118919;28;20518;-66
2022/07/01 00:22:37;;;;;;;4.30;3.90;;;;;;;16.92;84.28;100092.06;5120245;28;20480;-67
2022/07/01 00:25:05;;;;;;;4.97;4.30;;;;;;;16.99;84.18;100097.56;5120304;28;20453;-69
2022/07/01 00:27:32;;;;;;;5.23;4.73;;;;;;;16.82;84.82;100105.00;5120004;28;20450;-69
2022/07/01 00:30:00;;;;;;;5.10;4.30;;;;;;;16.90;85.16;100099.53;5120401;28;20525;-68
2022/07/01 00:32:27;;;;;;;6.60;5.07;;;;;;;16.90;84.90;100091.44;5119482;28;20507;-67
2022/07/01 00:34:54;;;;;;;6.70;4.97;;;;;;;16.82;84.37;100087.94;5119980;28;20850;-67
2022/07/01 00:37:20;;;;;;;5.90;5.30;;;;;;;16.90;84.45;100102.22;5120173;28;20469;-68
2022/07/01 00:39:47;;;;;;;5.13;4.63;;;;;;;16.76;84.29;100097.63;5120572;28;20446;-68
2022/07/01 00:42:14;;;;;;;6.10;4.73;;;;;;;16.73;84.37;100114.19;5119348;28;21124;-69
2022/07/01 00:44:40;;;;;;;6.20;4.70;;;;;;;16.59;84.48;100120.41;5120098;28;20768;-69
2022/07/01 00:47:12;;;;;;;10.37;5.30;;;;;;;16.86;83.48;100119.00;5119683;28;20469;-68
2022/07/01 00:49:39;;;;;;;4.20;3.70;;;;;;;16.77;82.86;100123.63;5119627;28;20473;-67
2022/07/01 00:52:06;;;;;;;6.57;3.47;;;;;;;16.79;83.39;100110.78;5119436;28;20482;-70
2022/07/01 00:54:36;;;;;;;5.30;4.50;;;;;;;16.63;83.68;100119.00;5120348;28;20526;-68
2022/07/01 00:57:07;;;;;;;5.50;4.50;;;;;;;16.59;83.46;100123.94;5120076;28;20490;-68
2022/07/01 00:59:35;;;;;;;5.40;4.90;;;;;;;16.78;82.21;100132.56;5122698;28;20439;-68
2022/07/01 01:02:01;;;;;;;7.27;4.60;;;;;;;16.67;82.34;100128.44;5124053;28;20468;-68
2022/07/01 01:04:29;;;;;;;4.10;3.80;;;;;;;16.42;82.41;100142.13;5123429;28;20454;-68
2022/07/01 01:06:57;;;;;;;5.27;4.17;;;;;;;16.56;82.96;100132.41;5123737;28;20492;-69
2022/07/01 01:09:24;;;;;;;5.23;3.80;;;;;;;16.29;82.64;100123.88;5124466;28;20506;-69
2022/07/01 01:11:51;;;;;;;6.80;3.90;;;;;;;16.38;82.55;100116.53;5124139;28;20465;-68
2022/07/01 01:14:17;;;;;;;3.87;3.03;;;;;;;16.64;81.43;100123.41;5124353;28;20859;-69
2022/07/01 01:16:44;;;;;;;5.20;3.33;;;;;;;16.32;82.01;100125.38;5123317;28;20469;-69
2022/07/01 01:19:11;;;;;;;4.37;3.03;;;;;;;16.54;82.08;100135.31;5123691;28;20560;-68
2022/07/01 01:21:39;;;;;;;4.20;3.17;;;;;;;16.66;80.78;100135.69;5123423;28;20501;-68
2022/07/01 01:24:08;;;;;;;4.70;3.30;;;;;;;16.59;81.14;100131.22;5124181;28;20454;-70
2022/07/01 01:26:35;;;;;;;4.60;3.30;;;;;;;16.21;81.77;100140.09;5123371;28;20478;-69
2022/07/01 01:29:01;;;;;;;6.93;3.20;;;;;;;16.17;81.55;100154.97;5124072;28;20438;-68
2022/07/01 01:31:30;;;;;;;4.83;3.33;;;;;;;16.35;81.35;100143.88;5123242;28;20541;-69
2022/07/01 01:33:56;;;;;;;5.03;3.40;;;;;;;16.51;81.06;100149.16;5123386;28;20465;-68
2022/07/01 01:36:23;;;;;;;5.70;2.97;;;;;;;16.52;80.42;100145.41;5123255;28;20533;-69
2022/07/01 01:38:51;;;;;;;5.60;3.33;;;;;;;16.28;80.83;100138.38;5123235;28;20442;-69
2022/07/01 01:41:18;;;;;;;7.10;3.90;;;;;;;16.33;80.51;100144.06;5123271;28;20477;-69
2022/07/01 01:43:45;;;;;;;5.80;3.47;;;;;;;16.11;81.48;100153.84;5123230;28;20454;-70
2022/07/01 01:46:11;;;;;;;5.67;3.40;;;;;;;16.36;81.19;100143.69;5122371;28;20501;-69
2022/07/01 01:48:38;;;;;;;4.53;4.13;;;;;;;16.09;81.15;100146.94;5122635;28;20450;-68
2022/07/01 01:51:04;;;;;;;4.83;3.80;;;;;;;16.21;81.13;100134.72;5123197;28;20527;-69
2022/07/01 01:53:31;;;;;;;3.60;3.30;;;;;;;16.51;79.86;100127.56;5123825;28;20883;-69
2022/07/01 01:56:00;;;;;;;7.57;4.30;;;;;;;16.30;80.45;100144.44;5122439;28;20915;-69
2022/07/01 01:58:26;;;;;;;4.77;3.90;;;;;;;16.43;80.17;100143.00;5123865;28;20430;-70
2022/07/01 02:00:53;;;;;;;7.10;4.10;;;;;;;16.32;80.15;100138.88;5122368;28;20474;-70
2022/07/01 02:03:20;;;;;;;7.60;4.10;;;;;;;16.30;80.42;100130.94;5122870;28;20453;-72
2022/07/01 02:05:46;;;;;;;5.17;4.33;;;;;;;16.30;80.72;100138.19;5122560;28;20481;-72
2022/07/01 02:08:13;;;;;;;5.97;3.90;;;;;;;16.19;80.04;100140.28;5123130;28;20454;-70
2022/07/01 02:10:40;;;;;;;5.30;4.87;;;;;;;16.02;81.24;100144.13;5121767;28;20498;-69
2022/07/01 02:13:08;;;;;;;4.90;4.40;;;;;;;15.97;81.66;100150.06;5123270;28;20488;-70
2022/07/01 02:15:35;;;;;;;4.50;4.10;;;;;;;16.08;81.36;100158.75;5122171;28;20500;-69
2022/07/01 02:18:02;;;;;;;4.80;4.20;;;;;;;16.05;80.53;100169.91;5122007;28;21155;-70
2022/07/01 02:20:28;;;;;;;4.30;3.90;;;;;;;16.23;80.53;100166.91;5121791;28;20474;-69
2022/07/01 02:22:55;;;;;;;7.10;4.80;;;;;;;15.94;80.51;100180.06;5123342;28;20935;-70
2022/07/01 02:25:22;;;;;;;6.50;4.60;;;;;;;15.93;81.05;100180.25;5122618;28;20442;-71
2022/07/01 02:27:48;;;;;;;4.80;4.33;;;;;;;16.22;80.29;100182.25;5123111;28;20434;-70
2022/07/01 02:30:17;;;;;;;5.20;4.70;;;;;;;15.90;80.95;100192.25;5122191;28;20485;-70
2022/07/01 02:32:43;;;;;;;5.00;4.60;;;;;;;15.99;81.17;100196.56;5122382;28;20454;-70
2022/07/01 02:35:11;;;;;;;4.90;4.20;;;;;;;16.15;80.57;100203.72;5121163;28;20473;-70
2022/07/01 02:37:38;;;;;;;5.10;4.63;;;;;;;16.45;79.90;100192.22;5123114;28;20441;-70
2022/07/01 02:40:05;;;;;;;4.00;3.60;;;;;;;16.23;80.12;100210.06;5122332;28;20885;-71
2022/07/01 02:42:35;;;;;;;4.67;3.33;;;;;;;16.09;80.66;100198.19;5122039;28;20454;-70
2022/07/01 02:45:03;;;;;;;4.50;3.70;;;;;;;16.05;80.88;100204.97;5122716;28;20852;-70
2022/07/01 02:47:34;;;;;;;5.27;3.90;;;;;;;16.18;80.89;100210.63;5121070;28;20516;-70
2022/07/01 02:50:01;;;;;;;5.93;4.40;;;;;;;16.18;80.87;100210.63;5121962;28;20485;-69
2022/07/01 02:52:28;;;;;;;5.90;4.17;;;;;;;16.07;80.71;100216.41;5122260;28;20488;-71
2022/07/01 02:54:55;;;;;;;5.13;4.50;;;;;;;15.99;80.83;100228.91;5122430;28;20447;-69
2022/07/01 02:57:22;;;;;;;6.40;4.00;;;;;;;16.04;80.95;100235.63;5120774;28;21010;-69
2022/07/01 02:59:50;;;;;;;4.60;3.87;;;;;;;16.10;80.74;100240.31;5122624;28;20446;-69
2022/07/01 03:02:17;;;;;;;5.60;4.70;;;;;;;16.26;80.30;100245.63;5121478;28;20482;-69
2022/07/01 03:04:46;;;;;;;4.87;4.40;;;;;;;16.19;80.38;100263.53;5121649;28;20453;-69
2022/07/01 03:07:13;;;;;;;5.90;4.60;;;;;;;16.23;80.13;100274.81;5120980;28;20502;-68
2022/07/01 03:09:40;;;;;;;6.87;4.93;;;;;;;16.10;80.65;100273.53;5121979;28;20477;-69
2022/07/01 03:14:48;;;;;;;7.37;5.20;;;;;;;16.13;81.71;100272.34;5120714;28;20443;-70
2022/07/01 03:17:15;;;;;;;7.87;7.07;;;;;;;16.04;82.53;100273.38;5120699;28;20478;-69
2022/07/01 03:19:41;;;;;;;6.23;5.63;;;;;;;16.14;81.94;100272.19;5121151;28;20477;-70
2022/07/01 03:22:09;;;;;;;9.87;6.63;;;;;;;16.06;82.00;100276.75;5120910;28;20491;-70
2022/07/01 03:24:36;;;;;;;7.67;6.87;;;;;;;15.87;83.00;100276.16;5120837;28;20450;-69
2022/07/01 03:27:03;;;;;;;7.07;6.37;;;;;;;16.06;82.25;100283.00;5121238;28;20482;-68
2022/07/01 03:29:30;;;;;;;8.40;7.60;;;;;;;16.00;82.35;100286.38;5121301;28;21418;-70
2022/07/01 03:31:57;;;;;;;8.07;7.17;;;;;;;15.91;82.31;100273.97;5120742;28;20496;-69
2022/07/01 03:34:23;;;;;;;7.97;7.17;;;;;;;15.95;82.78;100259.09;5120513;28;20997;-69
2022/07/01 03:36:50;;;;;;;7.50;6.80;;;;;;;16.25;81.76;100261.97;5121000;28;20466;-70
2022/07/01 03:39:18;;;;;;;8.77;7.87;;;;;;;16.35;80.96;100254.50;5121183;28;21146;-70
2022/07/01 03:41:45;;;;;;;9.50;8.50;;;;;;;16.19;81.13;100258.97;5120853;28;20481;-71
2022/07/01 03:44:11;;;;;;;9.70;8.70;;;;;;;16.20;81.53;100267.94;5120608;28;20446;-70
2022/07/01 03:46:38;;;;;;;10.03;9.00;;;;;;;16.27;81.47;100273.47;5119648;28;20482;-70
2022/07/01 03:49:05;;;;;;;9.37;8.47;;;;;;;16.22;80.92;100268.59;5120739;28;20457;-72
2022/07/01 03:51:31;;;;;;;10.50;9.47;;;;;;;16.08;81.67;100285.53;5120474;28;20462;-72
2022/07/01 03:56:44;;;;;;;11.80;10.27;;;;;;;16.15;81.87;100292.72;5120551;28;20944;-70
2022/07/01 03:59:10;;;;;;;9.93;8.93;;;;;;;16.43;81.48;100292.22;5120952;28;20467;-72
2022/07/01 04:01:37;;;;;;;11.10;10.00;;;;;;;16.25;81.03;100286.25;5120052;28;20510;-72
2022/07/01 04:04:04;;;;;;;12.40;11.20;;;;;;;16.33;81.19;100278.94;5119698;28;20515;-72
2022/07/01 04:06:31;;;;;;;12.53;11.30;;;;;;;16.36;81.03;100281.31;5120660;28;20478;-71
2022/07/01 04:08:57;;;;;;;12.67;11.30;;;;;;;16.19;81.36;100279.72;5121265;28;20530;-72
2022/07/01 04:11:24;;;;;;;16.80;11.60;;;;;;;16.30;81.21;100278.47;5119774;28;20510;-69
2022/07/01 04:13:52;;;;;;;14.03;12.13;;;;;;;16.26;81.90;100291.47;5119808;28;20963;-67
2022/07/01 04:16:19;;;;;;;13.63;12.13;;;;;;;16.49;81.13;100296.06;5118851;28;20490;-69
2022/07/01 04:18:47;;;;;;;13.63;11.77;;;;;;;16.38;81.40;100295.44;5119690;28;20435;-71
2022/07/01 04:23:58;;;;;;;17.23;14.07;;;;;;;15.95;82.08;100297.72;5119825;28;20437;-71
2022/07/01 04:26:25;;;;;;;19.83;15.10;;;;;;;16.03;82.54;100304.09;5117650;28;20505;-70
2022/07/01 04:28:54;;;;;;;15.67;13.93;;;;;;;16.05;82.70;100296.66;5119718;28;20475;-73
2022/07/01 04:31:21;;;;;;;17.03;15.23;;;;;;;15.99;82.18;100290.09;5118986;28;20982;-68
2022/07/01 04:33:48;;;;;;;23.47;17.60;;;;;;;16.00;83.00;100289.06;5118685;28;20562;-68
2022/07/01 04:36:15;;;;;;;18.77;16.77;;;;;;;16.09;82.06;100285.34;5119749;28;20473;-67
2022/07/01 04:38:42;;;;;;;19.40;17.30;;;;;;;16.07;82.38;100290.06;5119237;28;20474;-69
2022/07/01 04:43:54;;;;;;;18.83;16.83;;;;;;;16.35;81.19;100289.56;5120237;28;20448;-68
2022/07/01 04:46:21;;;;;;;18.13;16.20;;;;;;;16.34;81.39;100288.75;5117083;28;20557;-68
2022/07/01 04:48:47;;;;;;;18.70;16.70;;;;;;;16.60;80.49;100278.66;5119662;28;20446;-68
2022/07/01 04:51:14;;;;;;;19.57;17.30;;;;;;;16.58;80.38;100270.72;5119674;28;20544;-68
2022/07/01 04:53:40;;;;;;;18.63;16.37;;;;;;;16.56;79.81;100262.81;5120641;28;20454;-69
2022/07/01 04:56:07;;;;;;;17.83;15.87;;;;;;;16.53;79.96;100273.97;5119650;28;20505;-69
2022/07/01 04:58:34;;;;;;;17.77;15.63;;;;;;;16.26;79.53;100286.09;5120069;28;20438;-68
2022/07/01 05:01:02;;;;;;;18.33;15.93;;;;;;;16.24;79.82;100290.00;5118881;28;20498;-68
2022/07/01 05:03:29;;;;;;;18.67;14.40;;;;;;;16.47;79.56;100290.00;5118538;28;20458;-67
2022/07/01 05:05:55;;;;;;;18.67;15.90;;;;;;;16.53;78.90;100292.84;5119179;28;20470;-68
2022/07/01 05:08:22;;;;;;;17.13;15.30;;;;;;;16.65;78.95;100298.69;5119399;28;20431;-68
2022/07/01 05:10:49;;;;;;;16.77;15.00;;;;;;;16.49;78.46;100296.94;5119114;28;20499;-68
2022/07/01 05:13:15;;;;;;;16.90;14.73;;;;;;;16.49;78.71;100309.56;5119700;28;20981;-69
2022/07/01 05:15:42;;;;;;;16.90;15.10;;;;;;;16.45;79.39;100322.56;5118987;28;20500;-71
2022/07/01 05:23:39;;;;;;;17.07;15.37;;;;;;;16.45;78.72;100332.53;5116588;28;20434;-71
2022/07/01 05:26:05;;;;;;;16.80;15.03;;;;;;;16.64;78.30;100318.59;5119386;28;20494;-70
2022/07/01 05:28:32;;;;;;;17.37;14.33;;;;;;;16.50;78.18;100313.97;5119400;28;20455;-71
2022/07/01 05:30:59;;;;;;;15.27;13.70;;;;;;;16.14;78.00;100312.63;5118383;28;20485;-70
2022/07/01 05:33:27;;;;;;;15.73;13.77;;;;;;;16.53;77.12;100313.59;5118854;28;20482;-68
2022/07/01 05:35:54;;;;;;;15.47;13.87;;;;;;;16.32;77.83;100330.41;5113453;28;20470;-68
2022/07/01 05:38:21;;;;;;;17.53;13.63;;;;;;;16.18;78.53;100327.44;5108930;28;20434;-70
2022/07/01 05:40:48;;;;;;;16.90;14.40;;;;;;;16.41;77.68;100334.75;5104925;28;20471;-71
2022/07/01 05:43:14;;;;;;;16.00;14.30;;;;;;;16.30;77.49;100337.81;5109235;28;20438;-70
2022/07/01 05:45:41;;;;;;;16.53;14.23;;;;;;;16.13;77.98;100345.16;5108444;28;20549;-70
2022/07/01 05:48:07;;;;;;;14.40;12.90;;;;;;;16.29;78.14;100342.38;5109865;28;20434;-70
2022/07/01 05:50:36;;;;;;;15.73;14.00;;;;;;;16.41;77.48;100340.16;5111510;28;20500;-71
2022/07/01 05:53:02;;;;;;;18.70;14.87;;;;;;;16.55;77.02;100331.28;5113984;28;20474;-71
2022/07/01 05:55:29;;;;;;;16.80;14.10;;;;;;;16.54;77.23;100321.53;5111608;28;20927;-70
2022/07/01 05:57:56;;;;;;;16.33;14.63;;;;;;;16.33;77.75;100329.38;5115890;28;20457;-70
2022/07/01 06:00:22;;;;;;;16.70;14.90;;;;;;;16.48;77.27;100326.78;5111713;28;20470;-71
2022/07/01 06:02:49;;;;;;;17.40;12.93;;;;;;;16.49;76.86;100318.53;5106313;28;20469;-70
2022/07/01 06:05:16;;;;;;;16.90;14.53;;;;;;;16.70;76.17;100312.47;5101360;28;21247;-70
2022/07/01 06:07:44;;;;;;;17.53;15.40;;;;;;;16.57;76.92;100313.06;5103077;28;20435;-70
2022/07/01 06:10:11;;;;;;;16.63;14.83;;;;;;;16.54;76.83;100312.56;5101911;28;20666;-70
2022/07/01 06:12:38;;;;;;;15.03;13.43;;;;;;;16.55;77.52;100328.59;5102926;28;20478;-70
2022/07/01 06:15:07;;;;;;;19.83;15.47;;;;;;;16.44;77.19;100323.63;5090062;28;20436;-70
2022/07/01 06:17:34;;;;;;;18.70;15.90;;;;;;;16.65;76.72;100328.38;5107512;28;20451;-70
2022/07/01 06:20:01;;;;;;;17.83;14.70;;;;;;;16.51;77.40;100329.16;5115173;28;21027;-70
2022/07/01 06:22:27;;;;;;;20.13;15.37;;;;;;;16.70;76.34;100336.78;5103961;28;20518;-69
2022/07/01 06:24:55;;;;;;;21.13;15.73;;;;;;;16.69;75.50;100340.47;5102621;28;20463;-70
2022/07/01 06:27:23;;;;;;;19.93;16.73;;;;;;;16.73;75.90;100349.06;5101788;28;20494;-70
2022/07/01 06:29:50;;;;;;;20.77;15.60;;;;;;;17.01;75.59;100340.47;5102644;28;20478;-69
2022/07/01 06:32:16;;;;;;;19.83;17.40;;;;;;;16.93;75.38;100341.38;5115297;28;21006;-70
2022/07/01 06:34:43;;;;;;;23.80;16.37;;;;;;;17.06;74.88;100338.91;5122170;28;20499;-70
2022/07/01 06:37:11;;;;;;;23.67;18.47;;;;;;;17.06;73.89;100338.06;5122047;28;20490;-71
2022/07/01 06:39:38;;;;;;;23.57;17.93;;;;;;;16.77;75.09;100339.59;5110329;28;20470;-72
2022/07/01 06:42:07;;;;;;;24.83;17.93;;;;;;;17.09;74.62;100332.31;5102086;28;20475;-70
2022/07/01 06:44:34;;;;;;;23.50;17.20;;;;;;;16.90;74.07;100349.84;5102477;28;20967;-72
2022/07/01 06:47:00;;;;;;;24.00;18.17;;;;;;;17.07;74.79;100358.66;5083990;28;20498;-72
2022/07/01 06:49:27;;;;;;;22.90;19.07;;;;;;;17.28;74.09;100358.81;5081445;28;20487;-70
2022/07/01 06:51:54;;;;;;;22.37;18.40;;;;;;;17.34;73.79;100356.41;5081716;28;20510;-71
2022/07/01 06:54:21;;;;;;;21.67;18.87;;;;;;;17.36;73.29;100368.75;5092728;28;20470;-71
2022/07/01 06:56:48;;;;;;;25.30;21.53;;;;;;;16.88;74.30;100373.47;5100494;28;20544;-71
2022/07/01 06:59:16;;;;;;;25.67;21.60;;;;;;;17.16;74.35;100373.78;5099938;28;20481;-72
2022/07/01 07:01:42;;;;;;;25.97;20.43;;;;;;;16.89;74.85;100370.63;5101814;28;20495;-71
2022/07/01 07:04:09;;;;;;;26.47;21.23;;;;;;;17.44;73.78;100379.47;5101170;28;20443;-72
2022/07/01 07:06:36;;;;;;;25.47;20.40;;;;;;;17.60;71.92;100378.50;5101559;28;20471;-72
2022/07/01 07:09:02;;;;;;;29.27;22.17;;;;;;;17.01;73.52;100383.69;5102118;28;20454;-72
2022/07/01 07:11:29;;;;;;;25.37;21.50;;;;;;;17.01;74.24;100381.84;5100592;28;20533;-71
2022/07/01 07:13:56;;;;;;;23.30;20.77;;;;;;;17.40;73.20;100383.56;5101722;28;20451;-72
2022/07/01 07:16:26;;;;;;;23.30;20.80;;;;;;;17.29;72.47;100392.94;5100514;28;20470;-72
2022/07/01 07:18:53;;;;;;;25.33;20.40;;;;;;;17.05;72.61;100393.13;5101566;28;20451;-72
2022/07/01 07:21:19;;;;;;;24.20;19.90;;;;;;;17.22;71.84;100392.00;5100926;28;20462;-73
2022/07/01 07:23:46;;;;;;;27.63;20.70;;;;;;;16.96;72.28;100378.84;5101354;28;20469;-72
2022/07/01 07:26:13;;;;;;;22.40;18.70;;;;;;;17.43;71.34;100369.69;5100598;28;20496;-71
2022/07/01 07:28:40;;;;;;;21.87;18.37;;;;;;;17.42;70.91;100370.69;5101617;28;21017;-72
2022/07/01 07:31:06;;;;;;;20.87;18.60;;;;;;;17.15;71.76;100380.22;5100861;28;20508;-72
2022/07/01 07:33:34;;;;;;;20.73;18.40;;;;;;;17.22;71.13;100374.91;5101100;28;20470;-71
2022/07/01 07:36:01;;;;;;;19.70;16.70;;;;;;;17.51;70.32;100376.88;5107646;28;20470;-72
2022/07/01 07:38:28;;;;;;;18.30;16.23;;;;;;;17.84;69.08;100369.28;5122051;28;20457;-70
2022/07/01 07:40:55;;;;;;;19.27;17.27;;;;;;;17.64;69.03;100365.44;5120732;28;20470;-71
2022/07/01 07:43:21;;;;;;;18.63;16.60;;;;;;;18.00;68.17;100360.19;5121655;28;20464;-71
2022/07/01 07:45:48;;;;;;;17.93;15.37;;;;;;;18.11;67.94;100360.75;5120157;28;20492;-72
2022/07/01 07:48:15;;;;;;;18.57;15.40;;;;;;;17.90;68.10;100381.25;5121937;28;20430;-70
2022/07/01 07:50:43;;;;;;;18.57;15.47;;;;;;;18.10;67.46;100383.41;5120475;28;20533;-71
2022/07/01 07:53:11;;;;;;;17.63;15.77;;;;;;;17.63;68.70;100404.31;5121572;28;20481;-71
2022/07/01 07:55:38;;;;;;;16.37;14.63;;;;;;;18.02;67.69;100404.13;5115590;27;20494;-71
2022/07/01 07:58:06;;;;;;;18.37;14.20;;;;;;;18.54;66.40;100425.84;5099601;28;20447;-71
2022/07/01 08:00:33;;;;;;;16.73;14.97;;;;;;;18.47;65.47;100417.66;5101364;28;20490;-71
2022/07/01 08:02:59;;;;;;;14.30;12.83;;;;;;;18.53;65.13;100424.19;5119553;28;20464;-71
2022/07/01 08:05:26;;;;;;;16.90;14.33;;;;;;;18.29;64.94;100436.97;5119463;28;20469;-71
2022/07/01 08:07:54;;;;;;;16.00;13.73;;;;;;;17.60;67.44;100448.78;5120113;28;20496;-71
2022/07/01 08:10:21;;;;;;;13.53;12.13;;;;;;;17.66;66.76;100448.03;5119518;28;20453;-71
2022/07/01 08:12:48;;;;;;;12.40;11.20;;;;;;;17.60;67.21;100446.09;5120847;28;20724;-72
2022/07/01 08:15:15;;;;;;;13.57;12.17;;;;;;;17.66;67.35;100444.50;5119539;28;20446;-72
2022/07/01 08:17:42;;;;;;;14.27;12.07;;;;;;;18.01;66.35;100443.00;5106461;28;20461;-71
2022/07/01 08:20:09;;;;;;;13.30;12.00;;;;;;;18.35;65.29;100440.78;5098523;28;20480;-70
2022/07/01 08:22:36;;;;;;;11.80;10.57;;;;;;;17.93;65.69;100440.38;5119684;28;20438;-72
2022/07/01 08:25:05;;;;;;;11.70;10.50;;;;;;;17.66;66.64;100458.84;5120377;28;20456;-71
2022/07/01 08:27:32;;;;;;;12.67;11.33;;;;;;;17.57;66.60;100480.72;5120050;28;20462;-72
2022/07/01 08:29:58;;;;;;;12.63;10.07;;;;;;;17.45;68.62;100491.13;5119781;28;20510;-72
2022/07/01 08:32:26;;;;;;;11.30;10.10;;;;;;;17.69;67.07;100473.88;5120090;28;20503;-72
2022/07/01 08:34:53;;;;;;;11.30;10.13;;;;;;;17.91;66.89;100471.34;5104561;28;20474;-72
2022/07/01 08:37:20;;;;;;;11.20;10.10;;;;;;;17.53;67.40;100476.72;5080487;28;20466;-72
2022/07/01 08:39:47;;;;;;;11.57;10.23;;;;;;;17.45;67.82;100472.22;5078164;28;20452;-72
2022/07/01 08:42:15;;;;;;;14.30;11.00;;;;;;;16.99;68.44;100466.75;5078681;28;20472;-71
2022/07/01 08:44:42;;;;;;;13.27;11.57;;;;;;;17.10;69.13;100467.19;5079173;28;20452;-72
2022/07/01 08:47:12;;;;;;;13.63;11.43;;;;;;;17.37;67.87;100470.41;5092598;28;20503;-70
2022/07/01 08:49:39;;;;;;;15.33;11.23;;;;;;;17.65;67.04;100470.72;5098936;28;20474;-71
2022/07/01 08:52:07;;;;;;;12.10;10.57;;;;;;;17.79;66.26;100485.28;5098300;28;20482;-71
2022/07/01 08:54:34;;;;;;;13.07;10.77;;;;;;;17.83;66.07;100492.00;5084600;28;20486;-72
2022/07/01 08:57:01;;;;;;;11.00;9.80;;;;;;;17.82;65.22;100494.91;5077771;28;20515;-72
2022/07/01 08:59:29;;;;;;;11.73;9.47;;;;;;;17.39;66.54;100497.25;5078258;28;20522;-71
2022/07/01 09:01:57;;;;;;;14.20;9.80;;;;;;;17.82;66.58;100501.13;5079210;28;20471;-72
2022/07/01 09:04:24;;;;;;;11.43;10.23;;;;;;;17.88;65.05;100499.63;5077931;28;20515;-72
2022/07/01 09:06:50;;;;;;;10.37;9.27;;;;;;;18.17;65.36;100498.81;5078337;28;20468;-71
2022/07/01 09:09:20;;;;;;;10.80;9.40;;;;;;;18.25;64.90;100496.03;5079586;28;20424;-71
2022/07/01 09:11:53;;;;;;;15.20;10.63;;;;;;;17.99;65.16;100498.34;5078110;28;20482;-72
2022/07/01 09:14:21;;;;;;;13.00;9.40;;;;;;;18.20;64.19;100500.34;5078901;28;20451;-70
2022/07/01 09:16:51;;;;;;;10.97;9.50;;;;;;;18.59;63.95;100496.50;5078468;28;20529;-71
2022/07/01 09:19:19;;;;;;;9.37;8.37;;;;;;;18.79;63.46;100503.03;5079121;28;20451;-72
2022/07/01 09:21:49;;;;;;;12.30;8.87;;;;;;;18.87;61.44;100504.00;5083114;28;20487;-71
2022/07/01 09:24:29;;;;;;;9.43;8.50;;;;;;;19.30;59.93;100515.78;5084121;28;20467;-72
2022/07/01 09:26:56;;;;;;;8.40;7.53;;;;;;;19.54;59.56;100521.88;5083389;28;20467;-72
2022/07/01 09:29:28;;;;;;;10.23;7.30;;;;;;;20.12;57.86;100532.69;5083464;28;20447;-71
2022/07/01 09:31:56;;;;;;;7.00;6.30;;;;;;;20.38;57.50;100532.06;5082730;28;20903;-72
2022/07/01 09:34:23;;;;;;;6.70;5.60;;;;;;;20.13;57.29;100537.06;5083242;28;20463;-72
2022/07/01 09:36:54;;;;;;;7.00;6.30;;;;;;;20.48;56.40;100527.09;5100991;28;20486;-71
2022/07/01 09:39:20;;;;;;;5.93;5.30;;;;;;;21.21;54.22;100525.81;5103353;28;21044;-72
2022/07/01 09:41:47;;;;;;;9.90;6.53;;;;;;;21.27;52.54;100522.28;5102809;28;20509;-71
2022/07/01 09:44:14;;;;;;;9.63;5.60;;;;;;;22.84;49.93;100524.63;5103531;28;20453;-72
2022/07/01 09:46:53;;;;;;;6.63;5.57;;;;;;;23.26;49.16;100519.66;5115594;28;20477;-72
2022/07/01 09:49:22;;;;;;;6.90;6.20;;;;;;;22.02;48.86;100515.94;5122935;28;20496;-72
2022/07/01 09:51:50;;;;;;;7.20;6.30;;;;;;;21.98;48.39;100519.09;5108854;28;21021;-72
2022/07/01 09:54:17;;;;;;;6.43;5.80;;;;;;;23.06;47.37;100498.78;5103391;28;20458;-72
2022/07/01 09:56:44;;;;;;;7.73;5.50;;;;;;;23.82;45.51;100501.72;5102028;28;21022;-71
2022/07/01 09:59:11;;;;;;;13.20;5.93;;;;;;;22.48;47.81;100491.41;5103066;28;20993;-72
2022/07/01 10:01:39;;;;;;;6.60;5.30;;;;;;;21.69;49.87;100492.28;5112663;28;20477;-72
2022/07/01 10:04:08;;;;;;;6.13;5.53;;;;;;;21.35;50.45;100478.59;5122939;28;20484;-72
2022/07/01 10:06:57;;;;;;;7.87;5.30;;;;;;;22.27;47.79;100464.38;5106075;28;20505;-71
2022/07/01 10:09:41;;;;;;;6.53;5.40;;;;;;;21.04;48.72;100468.25;5102918;28;20485;-72
2022/07/01 10:12:24;;;;;;;5.60;5.00;;;;;;;21.05;49.55;100470.75;5086859;28;20471;-72
2022/07/01 10:14:51;;;;;;;5.20;4.70;;;;;;;21.53;48.57;100475.28;5099270;28;20522;-72
2022/07/01 10:17:28;;;;;;;5.27;4.77;;;;;;;22.37;46.96;100486.59;5100722;28;20502;-72
2022/07/01 10:19:56;;;;;;;5.53;5.03;;;;;;;22.99;46.13;100467.13;5101759;28;20445;-72
2022/07/01 10:22:29;;;;;;;6.20;5.20;;;;;;;22.69;46.31;100464.91;5122151;28;20519;-71
2022/07/01 10:24:56;;;;;;;5.60;4.50;;;;;;;23.05;45.46;100467.09;5124163;27;20458;-72
2022/07/01 10:27:24;;;;;;;4.70;4.30;;;;;;;22.51;46.37;100479.25;5122581;28;20515;-72
2022/07/01 10:29:54;;;;;;;5.37;4.40;;;;;;;22.64;45.62;100478.38;5123130;28;20434;-73
2022/07/01 10:32:30;;;;;;;8.03;4.47;;;;;;;23.25;44.52;100479.81;5121742;28;20485;-72
2022/07/01 10:35:07;;;;;;;5.43;3.83;;;;;;;22.25;45.41;100470.03;5122293;28;20471;-72
2022/07/01 10:37:35;;;;;;;6.30;3.70;;;;;;;23.09;44.13;100481.16;5122586;28;21128;-72
2022/07/01 10:40:03;;;;;;;5.83;4.87;;;;;;;22.37;44.67;100472.97;5122422;28;20466;-72
2022/07/01 10:42:31;;;;;;;4.33;3.57;;;;;;;22.85;44.93;100478.06;5101686;28;20467;-72
2022/07/01 10:45:03;;;;;;;4.50;4.10;;;;;;;22.94;43.77;100476.78;5101893;28;20435;-71
2022/07/01 10:47:30;;;;;;;4.03;3.67;;;;;;;23.22;43.00;100472.06;5100639;28;20471;-71
2022/07/01 10:49:59;;;;;;;10.13;4.10;;;;;;;23.10;42.52;100480.09;5101652;28;20442;-72
2022/07/01 10:52:26;;;;;;;5.90;3.73;;;;;;;23.35;43.36;100488.34;5121091;28;20482;-71
2022/07/01 10:54:56;;;;;;;5.80;4.60;;;;;;;23.13;43.38;100487.84;5101911;28;20451;-72
2022/07/01 10:57:27;;;;;;;5.10;3.63;;;;;;;22.50;44.75;100480.31;5120658;28;20529;-72
2022/07/01 10:59:56;;;;;;;4.40;3.70;;;;;;;22.12;45.24;100491.84;5122561;28;20449;-70
2022/07/01 11:02:24;;;;;;;5.10;4.57;;;;;;;21.89;45.48;100493.13;5121949;28;20470;-71
2022/07/01 11:04:53;;;;;;;6.30;4.47;;;;;;;21.71;46.17;100492.91;5121653;28;20471;-71
2022/07/01 11:07:19;;;;;;;4.13;3.73;;;;;;;22.31;45.82;100492.91;5121708;28;20482;-71
2022/07/01 11:09:46;;;;;;;4.60;3.87;;;;;;;22.17;45.93;100497.50;5121983;28;20856;-72
2022/07/01 11:12:16;;;;;;;7.50;4.03;;;;;;;21.91;46.77;100501.91;5104352;28;20495;-72
2022/07/01 11:14:42;;;;;;;4.73;4.27;;;;;;;21.17;46.08;100508.22;5102226;28;20447;-72
2022/07/01 11:17:10;;;;;;;4.60;3.20;;;;;;;20.96;47.14;100498.34;5104388;28;20855;-71
2022/07/01 11:19:38;;;;;;;5.13;3.77;;;;;;;21.00;46.93;100515.91;5102678;28;20443;-71
2022/07/01 11:22:06;;;;;;;3.60;3.30;;;;;;;20.99;47.91;100522.41;5116954;28;20474;-70
2022/07/01 11:24:33;;;;;;;5.10;3.70;;;;;;;20.24;49.85;100530.25;5102950;28;20457;-71
2022/07/01 11:27:02;;;;;;;5.23;3.90;;;;;;;20.09;49.83;100527.66;5116667;28;20473;-72
2022/07/01 11:29:30;;;;;;;6.50;4.63;;;;;;;19.89;51.26;100528.31;5121710;28;20438;-71
2022/07/01 11:31:57;;;;;;;4.53;4.10;;;;;;;20.20;50.85;100528.97;5121093;28;20478;-71
2022/07/01 11:34:24;;;;;;;7.23;5.13;;;;;;;19.85;51.83;100516.16;5120950;28;21278;-70